createdAt,value
2022-10-31T00:01:01.189Z,95.75
2022-10-31T00:03:28.236Z,95.95
2022-10-31T00:05:55.388Z,96.04
2022-10-31T00:08:22.550Z,96.53
2022-10-31T00:10:49.930Z,96.83
2022-10-31T00:13:17.331Z,97.03
2022-10-31T00:15:44.712Z,97.08
2022-10-31T00:18:12.449Z,97.50
2022-10-31T00:20:40.527Z,97.51
2022-10-31T00:23:08.284Z,97.58
2022-10-31T00:25:37.709Z,97.56
2022-10-31T00:28:06.097Z,97.61
2022-10-31T00:30:34.050Z,97.83
2022-10-31T00:33:02.297Z,97.48
2022-10-31T00:35:29.978Z,97.74
2022-10-31T00:37:57.230Z,97.68
2022-10-31T00:40:24.372Z,97.49
2022-10-31T00:42:52.383Z,97.46
2022-10-31T00:45:19.610Z,97.54
2022-10-31T00:47:46.799Z,97.82
2022-10-31T00:50:14.027Z,97.79
2022-10-31T00:52:42.197Z,97.94
2022-10-31T00:55:10.446Z,97.47
2022-10-31T00:57:37.909Z,97.41
2022-10-31T01:00:06.181Z,97.13
2022-10-31T01:02:33.609Z,97.30
2022-10-31T01:05:01.558Z,97.13
2022-10-31T01:07:28.757Z,96.88
2022-10-31T01:09:55.905Z,96.87
2022-10-31T01:12:24.710Z,97.49
2022-10-31T01:14:51.845Z,97.90
2022-10-31T01:17:19.528Z,97.60
2022-10-31T01:19:47.889Z,97.12
2022-10-31T01:22:15.147Z,96.43
2022-10-31T01:24:42.330Z,95.74
2022-10-31T01:27:09.363Z,95.82
2022-10-31T01:29:36.581Z,96.50
2022-10-31T01:32:03.933Z,96.72
2022-10-31T01:34:32.129Z,97.23
2022-10-31T01:36:59.178Z,97.96
2022-10-31T01:39:26.307Z,98.21
2022-10-31T01:41:55.539Z,98.15
2022-10-31T01:44:23.720Z,97.57
2022-10-31T01:46:58.388Z,97.61
2022-10-31T01:49:33.497Z,97.73
2022-10-31T01:52:08.648Z,98.30
2022-10-31T01:54:39.394Z,97.79
2022-10-31T01:57:09.295Z,97.95
2022-10-31T01:59:38.352Z,98.83
2022-10-31T02:02:05.809Z,98.85
2022-10-31T02:04:33.334Z,99.66
2022-10-31T02:07:04.431Z,99.74
2022-10-31T02:09:33.207Z,99.51
2022-10-31T02:12:03.804Z,99.43
2022-10-31T02:14:31.857Z,99.01
2022-10-31T02:16:59.401Z,98.40
2022-10-31T02:20:04.052Z,97.71
2022-10-31T02:22:58.709Z,97.21
2022-10-31T02:25:47.906Z,97.91
2022-10-31T02:28:36.666Z,97.81
2022-10-31T02:31:08.883Z,97.22
2022-10-31T02:33:47.469Z,96.02
2022-10-31T02:36:23.919Z,96.19
2022-10-31T02:39:10.285Z,96.37
2022-10-31T02:42:18.087Z,96.34
2022-10-31T02:44:49.566Z,96.57
2022-10-31T02:47:19.311Z,97.03
2022-10-31T02:49:50.422Z,97.26
2022-10-31T02:52:23.190Z,96.55
2022-10-31T02:54:50.471Z,96.50
2022-10-31T02:57:21.397Z,96.33
2022-10-31T02:59:51.327Z,95.91
2022-10-31T03:02:31.000Z,95.80
2022-10-31T03:05:06.902Z,96.14
2022-10-31T03:07:52.708Z,96.46
2022-10-31T03:10:32.825Z,96.80
2022-10-31T03:15:58.093Z,97.45
2022-10-31T03:18:31.126Z,97.53
2022-10-31T03:21:06.968Z,97.47
2022-10-31T03:23:37.059Z,96.54
2022-10-31T03:26:06.800Z,96.45
2022-10-31T03:28:45.537Z,96.15
2022-10-31T03:31:17.517Z,96.00
2022-10-31T03:33:45.990Z,96.33
2022-10-31T03:36:16.326Z,96.45
2022-10-31T03:38:44.518Z,96.51
2022-10-31T03:41:15.873Z,96.64
2022-10-31T03:43:54.370Z,96.71
2022-10-31T03:46:21.747Z,96.69
2022-10-31T03:48:50.622Z,96.72
2022-10-31T03:51:24.229Z,96.73
2022-10-31T03:54:03.756Z,96.84
2022-10-31T03:56:35.091Z,97.10
2022-10-31T03:59:07.421Z,97.05
2022-10-31T04:01:40.048Z,96.48
2022-10-31T04:04:08.461Z,96.24
2022-10-31T04:06:37.157Z,96.02
2022-10-31T04:09:06.192Z,96.23
2022-10-31T04:11:37.788Z,96.71
2022-10-31T04:14:39.825Z,96.49
2022-10-31T04:17:10.310Z,96.30
2022-10-31T04:19:39.470Z,96.33
2022-10-31T04:22:06.731Z,96.23
2022-10-31T04:24:34.169Z,96.55
2022-10-31T04:27:01.315Z,96.47
2022-10-31T04:29:28.968Z,96.90
2022-10-31T04:31:56.748Z,97.21
2022-10-31T04:34:24.109Z,97.32
2022-10-31T04:36:52.365Z,97.24
2022-10-31T04:39:24.034Z,97.73
2022-10-31T04:42:13.761Z,97.84
2022-10-31T04:44:40.796Z,97.88
2022-10-31T04:47:08.693Z,97.97
2022-10-31T04:49:36.872Z,98.20
2022-10-31T04:52:04.044Z,98.47
2022-10-31T04:54:31.174Z,98.31
2022-10-31T04:57:24.271Z,98.41
2022-10-31T04:59:51.520Z,98.25
2022-10-31T05:02:18.733Z,98.06
2022-10-31T05:04:51.749Z,97.80
2022-10-31T05:07:19.257Z,97.89
2022-10-31T05:09:46.351Z,97.95
2022-10-31T05:12:13.710Z,98.42
2022-10-31T05:15:13.629Z,98.23
2022-10-31T05:17:59.892Z,98.23
2022-10-31T05:20:50.013Z,98.32
2022-10-31T05:23:24.842Z,98.37
2022-10-31T05:25:51.988Z,98.46
2022-10-31T05:28:19.155Z,98.35
2022-10-31T05:30:46.238Z,98.37
2022-10-31T05:33:15.473Z,98.50
2022-10-31T05:36:01.370Z,98.76
2022-10-31T05:38:37.317Z,99.02
2022-10-31T05:41:25.292Z,99.06
2022-10-31T05:43:54.171Z,98.95
2022-10-31T05:46:24.349Z,99.23
2022-10-31T05:49:14.558Z,99.39
2022-10-31T05:52:00.484Z,99.74
2022-10-31T05:54:35.081Z,99.96
2022-10-31T05:57:02.198Z,99.79
2022-10-31T05:59:29.265Z,99.49
2022-10-31T06:01:56.494Z,99.44
2022-10-31T06:04:46.869Z,99.11
2022-10-31T06:07:14.163Z,98.85
2022-10-31T06:09:41.330Z,98.47
2022-10-31T06:12:08.780Z,98.53
2022-10-31T06:14:54.759Z,98.12
2022-10-31T06:17:22.120Z,98.27
2022-10-31T06:22:22.790Z,98.56
2022-10-31T06:24:50.329Z,98.83
2022-10-31T06:27:29.049Z,98.87
2022-10-31T06:29:56.521Z,99.10
2022-10-31T06:32:32.312Z,99.10
2022-10-31T06:35:00.476Z,99.17
2022-10-31T06:37:27.574Z,99.47
2022-10-31T06:39:59.966Z,99.69
2022-10-31T06:42:27.023Z,99.76
2022-10-31T06:44:54.659Z,99.66
2022-10-31T06:47:56.833Z,99.84
2022-10-31T06:50:32.553Z,99.77
2022-10-31T06:53:00.215Z,99.77
2022-10-31T06:55:28.527Z,99.82
2022-10-31T06:58:02.030Z,99.98
2022-10-31T07:00:32.191Z,100.00
2022-10-31T07:03:11.890Z,100.00
2022-10-31T07:05:39.685Z,100.00
2022-10-31T07:08:09.872Z,100.00
2022-10-31T07:10:40.486Z,100.00
2022-10-31T07:13:15.945Z,100.00
2022-10-31T07:15:47.395Z,100.00
2022-10-31T07:18:14.745Z,100.00
2022-10-31T07:20:43.323Z,100.00
2022-10-31T07:23:12.224Z,100.00
2022-10-31T07:25:40.901Z,100.00
2022-10-31T07:28:13.047Z,100.00
2022-10-31T07:30:40.746Z,100.00
2022-10-31T07:33:09.824Z,100.00
2022-10-31T07:35:57.566Z,100.00
2022-10-31T07:38:25.546Z,100.00
2022-10-31T07:40:56.584Z,100.00
2022-10-31T07:43:24.127Z,100.00
2022-10-31T07:46:24.246Z,100.00
2022-10-31T07:49:09.931Z,100.00
2022-10-31T07:51:58.309Z,100.00
2022-10-31T07:54:44.286Z,100.00
2022-10-31T07:57:11.926Z,100.00
2022-10-31T07:59:39.306Z,100.00
2022-10-31T08:02:07.066Z,100.00
2022-10-31T08:05:01.653Z,100.00
2022-10-31T08:07:47.445Z,99.96
2022-10-31T08:10:17.347Z,99.50
2022-10-31T08:12:44.902Z,99.14
2022-10-31T08:15:12.983Z,98.80
2022-10-31T08:17:40.327Z,98.54
2022-10-31T08:20:08.738Z,98.25
2022-10-31T08:22:43.748Z,98.03
2022-10-31T08:25:11.525Z,97.94
2022-10-31T08:27:39.430Z,97.79
2022-10-31T08:30:07.771Z,97.82
2022-10-31T08:32:36.638Z,97.38
2022-10-31T08:35:22.936Z,96.67
2022-10-31T08:38:14.346Z,95.97
2022-10-31T08:40:42.466Z,95.72
2022-10-31T08:43:17.591Z,95.54
2022-10-31T08:45:46.228Z,95.00
2022-10-31T08:48:18.890Z,94.67
2022-10-31T08:50:47.373Z,93.85
2022-10-31T08:53:17.214Z,93.05
2022-10-31T08:55:48.367Z,92.59
2022-10-31T08:58:26.573Z,91.99
2022-10-31T09:01:00.631Z,91.80
2022-10-31T09:03:30.471Z,90.73
2022-10-31T09:06:01.707Z,87.60
2022-10-31T09:08:31.351Z,86.70
2022-10-31T09:10:59.309Z,84.69
2022-10-31T09:13:46.958Z,84.59
2022-10-31T09:16:53.161Z,83.43
2022-10-31T09:19:22.927Z,81.77
2022-10-31T09:21:55.594Z,81.41
2022-10-31T09:24:23.263Z,80.69
2022-10-31T09:26:50.732Z,80.67
2022-10-31T09:29:20.697Z,79.35
2022-10-31T09:31:51.677Z,77.66
2022-10-31T09:34:45.280Z,78.28
2022-10-31T09:37:16.180Z,76.48
2022-10-31T09:39:43.433Z,77.24
2022-10-31T09:42:37.213Z,75.84
2022-10-31T09:45:28.117Z,74.65
2022-10-31T09:48:35.502Z,75.39
2022-10-31T09:51:15.870Z,76.24
2022-10-31T09:53:59.202Z,74.94
2022-10-31T09:56:27.371Z,75.32
2022-10-31T09:58:59.574Z,75.48
2022-10-31T10:01:48.795Z,76.38
2022-10-31T10:04:43.396Z,76.11
2022-10-31T10:07:42.504Z,76.35
2022-10-31T10:10:20.405Z,76.11
2022-10-31T10:13:37.425Z,75.11
2022-10-31T10:16:20.847Z,75.10
2022-10-31T10:19:14.006Z,74.81
2022-10-31T10:21:50.068Z,74.06
2022-10-31T10:24:35.335Z,74.23
2022-10-31T10:27:43.575Z,74.38
2022-10-31T10:30:22.190Z,73.67
2022-10-31T10:32:53.126Z,73.26
2022-10-31T10:35:28.464Z,72.99
2022-10-31T10:38:01.411Z,73.02
2022-10-31T10:40:29.631Z,72.67
2022-10-31T10:43:22.481Z,72.16
2022-10-31T10:46:25.372Z,72.19
2022-10-31T10:48:59.665Z,72.65
2022-10-31T10:51:58.264Z,73.07
2022-10-31T10:54:44.441Z,72.79
2022-10-31T10:57:14.454Z,72.57
2022-10-31T10:59:43.897Z,72.92
2022-10-31T11:02:32.774Z,72.47
2022-10-31T11:05:02.445Z,71.34
2022-10-31T11:07:40.355Z,71.96
2022-10-31T11:10:15.291Z,71.71
2022-10-31T11:12:43.656Z,70.97
2022-10-31T11:15:23.901Z,71.46
2022-10-31T11:17:56.901Z,71.27
2022-10-31T11:20:31.726Z,70.98
2022-10-31T11:23:17.509Z,71.56
2022-10-31T11:26:02.819Z,70.66
2022-10-31T11:28:31.661Z,69.98
2022-10-31T11:31:07.617Z,69.66
2022-10-31T11:33:38.661Z,70.16
2022-10-31T11:36:20.363Z,69.33
2022-10-31T11:38:47.726Z,69.62
2022-10-31T11:41:17.789Z,68.85
2022-10-31T11:43:52.588Z,69.13
2022-10-31T11:46:42.440Z,68.91
2022-10-31T11:49:22.180Z,68.82
2022-10-31T11:51:54.350Z,67.85
2022-10-31T11:54:26.006Z,68.02
2022-10-31T11:56:53.359Z,68.48
2022-10-31T11:59:32.209Z,67.74
2022-10-31T12:02:02.356Z,68.03
2022-10-31T12:04:34.369Z,67.99
2022-10-31T12:07:01.820Z,67.86
2022-10-31T12:09:31.647Z,68.24
2022-10-31T12:12:12.295Z,68.57
2022-10-31T12:15:13.549Z,68.33
2022-10-31T12:17:46.518Z,68.51
2022-10-31T12:20:38.886Z,69.06
2022-10-31T12:23:25.477Z,68.46
2022-10-31T12:26:15.032Z,68.26
2022-10-31T12:29:07.087Z,68.67
2022-10-31T12:31:54.526Z,68.72
2022-10-31T12:35:19.446Z,69.34
2022-10-31T12:38:05.425Z,68.84
2022-10-31T12:40:57.883Z,69.63
2022-10-31T12:44:07.106Z,69.09
2022-10-31T12:46:40.387Z,69.05
2022-10-31T12:49:58.727Z,69.15
2022-10-31T12:52:33.658Z,68.51
2022-10-31T12:55:11.244Z,68.85
2022-10-31T12:57:44.608Z,68.71
2022-10-31T13:00:19.367Z,69.26
2022-10-31T13:02:58.381Z,69.12
2022-10-31T13:05:35.485Z,69.63
2022-10-31T13:08:13.309Z,69.66
2022-10-31T13:10:46.742Z,69.51
2022-10-31T13:13:20.407Z,69.49
2022-10-31T13:15:51.157Z,69.61
2022-10-31T13:18:47.155Z,69.45
2022-10-31T13:21:20.456Z,69.43
2022-10-31T13:23:52.250Z,69.49
2022-10-31T13:26:33.462Z,69.61
2022-10-31T13:29:37.916Z,69.13
2022-10-31T13:32:11.094Z,69.68
2022-10-31T13:34:44.988Z,69.65
2022-10-31T13:37:36.430Z,69.94
2022-10-31T13:40:46.375Z,70.51
2022-10-31T13:43:42.787Z,70.64
2022-10-31T13:46:40.528Z,70.45
2022-10-31T13:49:26.790Z,70.68
2022-10-31T13:51:54.643Z,70.95
2022-10-31T13:54:33.977Z,70.93
2022-10-31T13:57:02.067Z,71.13
2022-10-31T13:59:32.687Z,70.98
2022-10-31T14:02:02.455Z,71.21
2022-10-31T14:04:38.225Z,71.40
2022-10-31T14:07:17.836Z,71.14
2022-10-31T14:09:57.602Z,71.22
2022-10-31T14:12:40.564Z,71.69
2022-10-31T14:15:14.166Z,71.21
2022-10-31T14:17:48.473Z,71.41
2022-10-31T14:20:15.717Z,71.69
2022-10-31T14:22:43.388Z,71.68
2022-10-31T14:25:29.649Z,71.67
2022-10-31T14:27:59.615Z,71.79
2022-10-31T14:30:29.113Z,71.79
2022-10-31T14:33:01.994Z,71.87
2022-10-31T14:35:59.247Z,72.11
2022-10-31T14:39:03.887Z,72.38
2022-10-31T14:41:50.578Z,72.46
2022-10-31T14:44:31.349Z,72.47
2022-10-31T14:47:16.254Z,72.66
2022-10-31T14:50:01.797Z,72.98
2022-10-31T14:52:29.247Z,73.22
2022-10-31T14:55:00.184Z,73.32
2022-10-31T14:57:31.125Z,73.46
2022-10-31T15:00:07.073Z,73.79
2022-10-31T15:02:56.877Z,73.92
2022-10-31T15:05:24.344Z,74.19
2022-10-31T15:07:59.253Z,74.31
2022-10-31T15:10:28.467Z,74.69
2022-10-31T15:12:55.775Z,75.03
2022-10-31T15:15:27.601Z,75.30
2022-10-31T15:17:57.995Z,75.43
2022-10-31T15:20:30.780Z,75.56
2022-10-31T15:22:59.681Z,76.08
2022-10-31T15:25:30.164Z,76.27
2022-10-31T15:27:57.329Z,76.55
2022-10-31T15:30:27.589Z,76.60
2022-10-31T15:32:58.964Z,76.66
2022-10-31T15:35:31.225Z,76.93
2022-10-31T15:38:00.546Z,77.21
2022-10-31T15:40:29.464Z,77.53
2022-10-31T15:43:03.125Z,77.65
2022-10-31T15:45:31.720Z,77.90
2022-10-31T15:48:01.603Z,78.29
2022-10-31T15:50:33.553Z,78.47
2022-10-31T15:53:01.598Z,78.77
2022-10-31T15:55:31.299Z,79.07
2022-10-31T15:58:00.598Z,79.30
2022-10-31T16:00:35.324Z,79.40
2022-10-31T16:03:21.236Z,79.55
2022-10-31T16:06:00.072Z,79.65
2022-10-31T16:08:30.258Z,80.13
2022-10-31T16:11:00.686Z,80.45
2022-10-31T16:13:30.732Z,80.77
2022-10-31T16:16:34.174Z,80.88
2022-10-31T16:19:02.933Z,81.04
2022-10-31T16:21:33.257Z,80.96
2022-10-31T16:24:06.241Z,81.20
2022-10-31T16:26:34.373Z,81.64
2022-10-31T16:29:04.747Z,81.85
2022-10-31T16:31:39.111Z,82.19
2022-10-31T16:34:23.734Z,82.20
2022-10-31T16:36:53.538Z,82.04
2022-10-31T16:39:20.971Z,82.20
2022-10-31T16:41:52.699Z,82.50
2022-10-31T16:44:27.633Z,82.63
2022-10-31T16:47:14.959Z,82.83
2022-10-31T16:49:43.542Z,83.45
2022-10-31T16:52:17.460Z,83.40
2022-10-31T16:54:45.210Z,83.54
2022-10-31T16:57:21.136Z,83.89
2022-10-31T16:59:50.170Z,84.00
2022-10-31T17:02:18.354Z,83.93
2022-10-31T17:04:45.708Z,83.72
2022-10-31T17:07:13.165Z,83.95
2022-10-31T17:09:40.505Z,84.77
2022-10-31T17:12:11.053Z,85.78
2022-10-31T17:14:38.385Z,85.54
2022-10-31T17:17:06.553Z,84.18
2022-10-31T17:19:35.466Z,84.12
2022-10-31T17:22:03.954Z,84.24
2022-10-31T17:24:31.406Z,84.52
2022-10-31T17:26:58.743Z,84.76
2022-10-31T17:29:25.990Z,85.23
2022-10-31T17:31:53.784Z,85.89
2022-10-31T17:34:21.115Z,86.53
2022-10-31T17:36:52.650Z,87.22
2022-10-31T17:39:21.194Z,87.53
2022-10-31T17:41:52.934Z,87.65
2022-10-31T17:44:20.910Z,87.88
2022-10-31T17:46:48.746Z,88.12
2022-10-31T17:49:16.303Z,88.43
2022-10-31T17:51:44.361Z,88.18
2022-10-31T17:54:12.546Z,88.07
2022-10-31T17:56:39.835Z,87.84
2022-10-31T17:59:07.760Z,87.69
2022-10-31T18:01:35.654Z,87.11
2022-10-31T18:04:03.711Z,87.39
2022-10-31T18:06:31.368Z,87.50
2022-10-31T18:09:03.966Z,87.89
2022-10-31T18:11:31.941Z,88.92
2022-10-31T18:14:00.965Z,89.86
2022-10-31T18:16:28.900Z,89.76
2022-10-31T18:19:02.257Z,89.21
2022-10-31T18:21:30.043Z,88.91
2022-10-31T18:24:00.197Z,89.43
2022-10-31T18:26:29.368Z,89.76
2022-10-31T18:28:56.892Z,89.46
2022-10-31T18:31:26.119Z,89.90
2022-10-31T18:33:57.755Z,90.36
2022-10-31T18:36:25.827Z,90.32
2022-10-31T18:38:55.685Z,90.48
2022-10-31T18:41:23.516Z,90.16
2022-10-31T18:43:51.836Z,90.68
2022-10-31T18:46:20.866Z,91.11
2022-10-31T18:48:49.066Z,91.66
2022-10-31T18:51:19.267Z,92.26
2022-10-31T18:53:54.985Z,92.45
2022-10-31T18:56:24.019Z,91.59
2022-10-31T18:58:52.106Z,92.29
2022-10-31T19:01:21.504Z,92.75
2022-10-31T19:03:56.752Z,92.17
2022-10-31T19:06:28.642Z,89.81
2022-10-31T19:09:01.669Z,89.27
2022-10-31T19:11:29.026Z,89.15
2022-10-31T19:13:57.731Z,89.86
2022-10-31T19:16:26.194Z,90.97
2022-10-31T19:18:56.767Z,91.52
2022-10-31T19:21:24.793Z,91.89
2022-10-31T19:23:54.453Z,91.06
2022-10-31T19:26:22.084Z,91.06
2022-10-31T19:28:50.276Z,91.64
2022-10-31T19:31:19.986Z,92.29
2022-10-31T19:33:47.506Z,92.05
2022-10-31T19:36:17.322Z,91.89
2022-10-31T19:38:47.367Z,92.20
2022-10-31T19:41:18.072Z,92.18
2022-10-31T19:43:46.028Z,91.76
2022-10-31T19:46:22.132Z,92.09
2022-10-31T19:49:01.526Z,92.57
2022-10-31T19:51:29.016Z,92.60
2022-10-31T19:53:56.860Z,93.08
2022-10-31T19:56:25.822Z,92.73
2022-10-31T19:58:53.690Z,92.41
2022-10-31T20:01:23.567Z,92.85
2022-10-31T20:03:52.148Z,92.90
2022-10-31T20:06:25.577Z,93.25
2022-10-31T20:08:54.395Z,92.80
2022-10-31T20:11:23.957Z,92.62
2022-10-31T20:13:51.250Z,92.55
2022-10-31T20:16:18.611Z,93.18
2022-10-31T20:18:47.309Z,93.78
2022-10-31T20:21:18.077Z,94.12
2022-10-31T20:23:48.355Z,94.34
2022-10-31T20:26:18.430Z,94.26
2022-10-31T20:28:46.944Z,94.08
2022-10-31T20:31:20.604Z,94.28
2022-10-31T20:33:49.487Z,94.42
2022-10-31T20:36:23.160Z,94.24
2022-10-31T20:38:52.987Z,94.57
2022-10-31T20:41:21.573Z,94.49
2022-10-31T20:43:49.359Z,94.33
2022-10-31T20:46:20.351Z,94.16
2022-10-31T20:48:47.960Z,93.81
2022-10-31T20:51:24.314Z,93.76
2022-10-31T20:53:54.628Z,94.04
2022-10-31T20:56:24.483Z,92.97
2022-10-31T20:58:53.104Z,92.88
2022-10-31T21:01:23.444Z,92.63
2022-10-31T21:03:52.976Z,92.67
2022-10-31T21:06:21.977Z,93.45
2022-10-31T21:08:51.126Z,94.24
2022-10-31T21:11:21.598Z,94.43
2022-10-31T21:13:49.401Z,93.79
2022-10-31T21:16:43.168Z,93.77
2022-10-31T21:19:10.838Z,93.22
2022-10-31T21:21:38.029Z,93.46
2022-10-31T21:24:08.549Z,93.67
2022-10-31T21:26:38.948Z,94.05
2022-10-31T21:29:08.923Z,94.13
2022-10-31T21:31:37.478Z,94.19
2022-10-31T21:34:05.504Z,94.00
2022-10-31T21:36:34.084Z,93.96
2022-10-31T21:39:01.346Z,94.20
2022-10-31T21:41:28.921Z,94.08
2022-10-31T21:43:56.563Z,94.30
2022-10-31T21:46:26.443Z,94.33
2022-10-31T21:48:53.908Z,94.84
2022-10-31T21:51:23.430Z,95.54
2022-10-31T21:54:10.111Z,95.92
2022-10-31T21:56:38.124Z,95.76
2022-10-31T21:59:06.311Z,95.45
2022-10-31T22:01:34.500Z,95.21
2022-10-31T22:04:01.902Z,95.13
2022-10-31T22:06:30.885Z,95.42
2022-10-31T22:09:03.591Z,95.32
2022-10-31T22:11:30.947Z,96.29
2022-10-31T22:14:01.723Z,96.71
2022-10-31T22:16:30.125Z,96.32
2022-10-31T22:18:59.662Z,96.32
2022-10-31T22:21:28.326Z,96.19
2022-10-31T22:24:03.328Z,95.31
2022-10-31T22:26:32.890Z,94.66
2022-10-31T22:29:03.464Z,94.55
2022-10-31T22:31:31.837Z,94.62
2022-10-31T22:33:59.685Z,94.40
2022-10-31T22:36:28.669Z,94.66
2022-10-31T22:38:56.515Z,95.32
2022-10-31T22:41:26.076Z,95.49
2022-10-31T22:43:54.344Z,96.30
2022-10-31T22:46:27.388Z,96.71
2022-10-31T22:49:10.623Z,97.11
2022-10-31T22:51:39.658Z,97.19
2022-10-31T22:54:15.713Z,97.50
2022-10-31T22:56:42.873Z,97.70
2022-10-31T22:59:13.776Z,97.74
2022-10-31T23:01:41.256Z,98.01
2022-10-31T23:04:09.134Z,98.24
2022-10-31T23:06:37.763Z,98.66
2022-10-31T23:09:07.687Z,98.83
2022-10-31T23:11:38.100Z,99.34
2022-10-31T23:14:11.005Z,99.29
2022-10-31T23:16:51.488Z,98.97
2022-10-31T23:19:27.938Z,98.51
2022-10-31T23:22:02.372Z,98.09
2022-10-31T23:24:33.741Z,98.49
2022-10-31T23:27:08.924Z,98.67
2022-10-31T23:29:43.547Z,98.98
2022-10-31T23:32:21.010Z,99.09
2022-10-31T23:34:50.079Z,98.80
2022-10-31T23:37:18.921Z,98.67
2022-10-31T23:39:46.386Z,98.63
2022-10-31T23:42:14.343Z,99.13
2022-10-31T23:44:41.750Z,99.04
2022-10-31T23:47:09.392Z,98.97
2022-10-31T23:49:36.827Z,98.80
2022-10-31T23:52:05.101Z,98.38
2022-10-31T23:54:33.068Z,98.50
2022-10-31T23:57:00.446Z,98.53
2022-10-31T23:59:29.356Z,98.50
